createdAt,value
2018-03-20T00:00:42.965Z,65.97
2018-03-20T00:03:10.177Z,66.03
2018-03-20T00:05:37.446Z,66.40
2018-03-20T00:08:04.568Z,66.13
2018-03-20T00:10:31.374Z,67.91
2018-03-20T00:12:59.178Z,67.41
2018-03-20T00:15:26.964Z,66.58
2018-03-20T00:17:54.338Z,66.29
2018-03-20T00:20:21.648Z,66.61
2018-03-20T00:22:50.583Z,66.44
2018-03-20T00:25:17.635Z,66.47
2018-03-20T00:27:44.961Z,67.13
2018-03-20T00:30:12.199Z,66.74
2018-03-20T00:32:39.161Z,66.49
2018-03-20T00:35:06.010Z,65.71
2018-03-20T00:37:33.277Z,65.77
2018-03-20T00:40:00.769Z,67.07
2018-03-20T00:42:27.885Z,66.65
2018-03-20T00:44:55.296Z,67.27
2018-03-20T00:47:22.495Z,67.36
2018-03-20T00:49:49.558Z,67.22
2018-03-20T00:52:16.300Z,66.80
2018-03-20T00:54:43.032Z,67.73
2018-03-20T00:57:10.680Z,66.73
2018-03-20T00:59:37.782Z,66.89
2018-03-20T01:02:06.318Z,66.68
2018-03-20T01:04:33.640Z,66.47
2018-03-20T01:07:00.868Z,66.10
2018-03-20T01:09:28.592Z,66.32
2018-03-20T01:11:56.049Z,65.02
2018-03-20T01:14:22.827Z,67.86
2018-03-20T01:16:49.898Z,66.69
2018-03-20T01:19:16.980Z,65.65
2018-03-20T01:21:43.786Z,66.10
2018-03-20T01:24:10.543Z,66.10
2018-03-20T01:26:37.697Z,66.06
2018-03-20T01:29:06.015Z,65.97
2018-03-20T01:31:33.062Z,65.47
2018-03-20T01:34:00.323Z,67.92
2018-03-20T01:36:27.961Z,67.97
2018-03-20T01:38:55.592Z,67.04
2018-03-20T01:41:22.956Z,67.86
2018-03-20T01:43:49.782Z,66.79
2018-03-20T01:46:16.880Z,66.06
2018-03-20T01:48:43.816Z,66.83
2018-03-20T01:51:10.939Z,66.33
2018-03-20T01:53:37.969Z,68.78
2018-03-20T01:56:05.428Z,70.14
2018-03-20T01:58:32.825Z,68.10
2018-03-20T02:01:00.287Z,69.26
2018-03-20T02:03:27.869Z,68.46
2018-03-20T02:05:55.139Z,69.16
2018-03-20T02:08:22.267Z,66.90
2018-03-20T02:10:49.508Z,67.33
2018-03-20T02:15:02.094Z,66.94
2018-03-20T02:17:29.327Z,66.42
2018-03-20T02:19:56.262Z,66.11
2018-03-20T02:22:23.914Z,65.78
2018-03-20T02:24:50.723Z,65.85
2018-03-20T02:27:17.476Z,66.08
2018-03-20T02:29:44.238Z,66.56
2018-03-20T02:32:11.375Z,65.99
2018-03-20T02:34:38.203Z,67.27
2018-03-20T02:37:05.792Z,66.27
2018-03-20T02:39:33.339Z,65.82
2018-03-20T02:44:41.336Z,65.78
2018-03-20T02:47:08.462Z,65.45
2018-03-20T02:49:36.424Z,65.60
2018-03-20T02:52:03.519Z,65.47
2018-03-20T02:54:31.024Z,65.79
2018-03-20T02:56:57.980Z,65.14
2018-03-20T02:59:24.855Z,66.25
2018-03-20T03:01:52.183Z,65.29
2018-03-20T03:04:19.316Z,64.75
2018-03-20T03:06:46.337Z,66.31
2018-03-20T03:09:13.064Z,66.40
2018-03-20T03:11:40.698Z,66.30
2018-03-20T03:14:07.785Z,66.30
2018-03-20T03:16:34.840Z,66.36
2018-03-20T03:19:01.545Z,66.04
2018-03-20T03:21:28.432Z,65.61
2018-03-20T03:23:55.623Z,65.60
2018-03-20T03:26:22.404Z,65.14
2018-03-20T03:28:49.790Z,65.01
2018-03-20T03:31:16.508Z,64.99
2018-03-20T03:33:43.679Z,64.60
2018-03-20T03:36:10.691Z,65.34
2018-03-20T03:38:37.747Z,64.93
2018-03-20T03:41:05.256Z,65.77
2018-03-20T03:43:33.557Z,64.86
2018-03-20T03:46:00.440Z,64.64
2018-03-20T03:48:27.216Z,64.45
2018-03-20T03:50:54.384Z,64.16
2018-03-20T03:53:21.368Z,63.96
2018-03-20T03:55:48.385Z,64.12
2018-03-20T03:58:15.167Z,63.96
2018-03-20T04:00:42.143Z,64.40
2018-03-20T04:03:09.196Z,64.19
2018-03-20T04:05:37.020Z,64.26
2018-03-20T04:08:05.139Z,63.88
2018-03-20T04:13:06.200Z,64.34
2018-03-20T04:15:33.569Z,64.46
2018-03-20T04:18:00.699Z,64.52
2018-03-20T04:20:28.455Z,63.82
2018-03-20T04:22:55.426Z,64.03
2018-03-20T04:25:23.240Z,64.70
2018-03-20T04:27:50.303Z,65.17
2018-03-20T04:30:17.357Z,66.27
2018-03-20T04:32:44.442Z,67.18
2018-03-20T04:35:12.488Z,68.99
2018-03-20T04:37:39.460Z,70.42
2018-03-20T04:40:07.293Z,71.69
2018-03-20T04:42:34.468Z,69.27
2018-03-20T04:45:01.780Z,71.91
2018-03-20T04:50:02.390Z,75.78
2018-03-20T04:52:29.370Z,76.12
2018-03-20T04:54:56.174Z,77.31
2018-03-20T04:57:25.697Z,74.57
2018-03-20T04:59:52.778Z,72.67
2018-03-20T05:02:20.339Z,71.96
2018-03-20T05:04:47.525Z,70.77
2018-03-20T05:07:14.617Z,69.43
2018-03-20T05:09:41.850Z,69.75
2018-03-20T05:12:09.032Z,70.36
2018-03-20T05:14:37.033Z,71.89
2018-03-20T05:17:04.455Z,73.79
2018-03-20T05:19:41.831Z,71.27
2018-03-20T05:22:15.234Z,70.98
2018-03-20T05:24:42.681Z,72.66
2018-03-20T05:27:09.892Z,74.15
2018-03-20T05:29:37.041Z,71.21
2018-03-20T05:32:04.449Z,73.19
2018-03-20T05:34:31.087Z,72.82
2018-03-20T05:36:58.097Z,72.52
2018-03-20T05:39:25.427Z,73.06
2018-03-20T05:41:52.385Z,73.04
2018-03-20T05:44:19.804Z,72.79
2018-03-20T05:49:54.386Z,71.01
2018-03-20T05:52:22.025Z,69.44
2018-03-20T05:54:49.053Z,70.89
2018-03-20T05:57:16.511Z,68.90
2018-03-20T05:59:43.736Z,68.63
2018-03-20T06:02:11.116Z,67.69
2018-03-20T06:04:37.964Z,68.72
2018-03-20T06:07:06.456Z,69.67
2018-03-20T06:09:33.360Z,70.87
2018-03-20T06:12:00.530Z,70.26
2018-03-20T06:14:30.122Z,70.93
2018-03-20T06:16:58.427Z,68.94
2018-03-20T06:19:25.314Z,67.58
2018-03-20T06:21:52.573Z,66.37
2018-03-20T06:24:19.531Z,68.98
2018-03-20T06:26:46.610Z,69.16
2018-03-20T06:29:14.095Z,68.04
2018-03-20T06:31:44.230Z,69.12
2018-03-20T06:34:10.991Z,70.80
2018-03-20T06:36:39.194Z,72.04
2018-03-20T06:39:07.340Z,70.51
2018-03-20T06:41:34.372Z,69.63
2018-03-20T06:46:35.240Z,70.64
2018-03-20T06:49:02.195Z,72.25
2018-03-20T06:51:29.323Z,70.44
2018-03-20T06:53:56.254Z,69.43
2018-03-20T06:56:23.620Z,69.47
2018-03-20T06:58:50.708Z,71.30
2018-03-20T07:01:17.739Z,69.56
2018-03-20T07:03:46.314Z,70.85
2018-03-20T07:06:14.973Z,70.15
2018-03-20T07:08:42.641Z,67.83
2018-03-20T07:11:09.971Z,68.84
2018-03-20T07:13:37.358Z,66.80
2018-03-20T07:16:05.938Z,68.02
2018-03-20T07:18:33.305Z,67.28
2018-03-20T07:21:00.867Z,65.92
2018-03-20T07:23:27.727Z,65.32
2018-03-20T07:25:54.392Z,66.79
2018-03-20T07:28:22.224Z,69.49
2018-03-20T07:30:50.344Z,69.02
2018-03-20T07:33:17.236Z,69.55
2018-03-20T07:35:44.911Z,69.77
2018-03-20T07:38:12.192Z,71.22
2018-03-20T07:40:39.892Z,68.98
2018-03-20T07:43:07.054Z,68.30
2018-03-20T07:45:34.297Z,68.57
2018-03-20T07:48:01.230Z,66.74
2018-03-20T07:50:28.518Z,65.20
2018-03-20T07:52:55.356Z,65.15
2018-03-20T07:55:22.523Z,65.11
2018-03-20T07:57:49.422Z,63.59
2018-03-20T08:00:16.940Z,63.06
2018-03-20T08:02:43.808Z,63.83
2018-03-20T08:05:10.636Z,63.67
2018-03-20T08:07:37.448Z,64.94
2018-03-20T08:10:04.515Z,65.07
2018-03-20T08:12:31.327Z,67.54
2018-03-20T08:14:58.478Z,68.79
2018-03-20T08:17:26.135Z,67.13
2018-03-20T08:19:52.923Z,65.78
2018-03-20T08:22:19.859Z,65.00
2018-03-20T08:24:46.463Z,64.44
2018-03-20T08:27:13.706Z,64.21
2018-03-20T08:29:40.710Z,63.52
2018-03-20T08:32:08.254Z,64.61
2018-03-20T08:34:35.148Z,66.42
2018-03-20T08:37:03.473Z,65.90
2018-03-20T08:39:30.774Z,67.93
2018-03-20T08:41:58.256Z,70.37
2018-03-20T08:44:25.459Z,67.33
2018-03-20T08:46:52.372Z,67.65
2018-03-20T08:49:19.624Z,68.33
2018-03-20T08:51:46.503Z,71.04
2018-03-20T08:54:13.507Z,70.61
2018-03-20T08:56:40.456Z,70.77
2018-03-20T08:59:07.541Z,69.29
2018-03-20T09:01:34.538Z,70.80
2018-03-20T09:04:01.558Z,70.94
2018-03-20T09:06:29.012Z,71.63
2018-03-20T09:08:55.756Z,70.87
2018-03-20T09:11:22.782Z,68.59
2018-03-20T09:13:49.864Z,70.45
2018-03-20T09:16:16.915Z,68.81
2018-03-20T09:18:43.824Z,69.50
2018-03-20T09:21:10.566Z,69.71
2018-03-20T09:23:37.843Z,68.84
2018-03-20T09:26:04.454Z,68.92
2018-03-20T09:28:31.271Z,67.36
2018-03-20T09:30:57.972Z,68.07
2018-03-20T09:33:25.121Z,65.67
2018-03-20T09:35:52.154Z,67.35
2018-03-20T09:38:22.054Z,67.40
2018-03-20T09:40:49.141Z,66.94
2018-03-20T09:43:15.911Z,63.07
2018-03-20T09:45:42.818Z,61.50
2018-03-20T09:48:09.692Z,61.62
2018-03-20T09:50:36.768Z,61.68
2018-03-20T09:53:03.841Z,61.78
2018-03-20T09:55:30.918Z,61.79
2018-03-20T09:57:58.374Z,61.25
2018-03-20T10:00:25.329Z,60.54
2018-03-20T10:02:53.034Z,63.47
2018-03-20T10:05:20.940Z,61.56
2018-03-20T10:07:48.094Z,60.60
2018-03-20T10:10:14.937Z,60.93
2018-03-20T10:12:42.228Z,62.44
2018-03-20T10:15:09.083Z,63.96
2018-03-20T10:17:36.269Z,61.96
2018-03-20T10:20:03.249Z,61.09
2018-03-20T10:22:30.959Z,60.74
2018-03-20T10:24:58.044Z,60.14
2018-03-20T10:27:25.647Z,61.43
2018-03-20T10:29:53.251Z,60.18
2018-03-20T10:32:21.588Z,59.51
2018-03-20T10:34:49.075Z,60.15
2018-03-20T10:37:16.250Z,59.41
2018-03-20T10:39:43.887Z,59.37
2018-03-20T10:42:11.376Z,59.01
2018-03-20T10:44:38.354Z,59.61
2018-03-20T10:47:06.375Z,59.29
2018-03-20T10:49:33.994Z,59.74
2018-03-20T10:52:01.756Z,58.52
2018-03-20T10:54:29.204Z,58.30
2018-03-20T10:56:56.599Z,57.99
2018-03-20T10:59:23.849Z,58.66
2018-03-20T11:01:50.898Z,59.37
2018-03-20T11:04:18.246Z,58.44
2018-03-20T11:06:45.073Z,58.90
2018-03-20T11:09:12.255Z,59.10
2018-03-20T11:11:39.470Z,59.02
2018-03-20T11:14:07.704Z,58.81
2018-03-20T11:16:35.039Z,59.28
2018-03-20T11:19:03.268Z,60.33
2018-03-20T11:21:30.978Z,59.56
2018-03-20T11:23:58.109Z,59.10
2018-03-20T11:26:25.122Z,59.57
2018-03-20T11:28:58.977Z,60.36
2018-03-20T11:31:26.288Z,60.26
2018-03-20T11:33:53.762Z,59.65
2018-03-20T11:36:21.186Z,60.19
2018-03-20T11:38:49.083Z,60.64
2018-03-20T11:41:16.531Z,59.40
2018-03-20T11:43:43.492Z,59.33
2018-03-20T11:46:10.655Z,60.36
2018-03-20T11:48:37.823Z,58.97
2018-03-20T11:51:05.078Z,58.86
2018-03-20T11:53:31.943Z,58.47
2018-03-20T11:55:58.595Z,58.96
2018-03-20T11:58:26.183Z,58.92
2018-03-20T12:00:53.650Z,58.64
2018-03-20T12:03:21.311Z,58.68
2018-03-20T12:05:48.358Z,59.32
2018-03-20T12:08:27.456Z,60.50
2018-03-20T12:10:55.203Z,59.79
2018-03-20T12:13:22.327Z,60.44
2018-03-20T12:15:49.331Z,59.91
2018-03-20T12:18:17.026Z,59.39
2018-03-20T12:20:44.506Z,60.16
2018-03-20T12:23:12.424Z,63.01
2018-03-20T12:25:39.966Z,62.82
2018-03-20T12:28:06.810Z,62.27
2018-03-20T12:30:35.004Z,61.23
2018-03-20T12:33:01.822Z,61.28
2018-03-20T12:35:31.673Z,59.90
2018-03-20T12:37:59.252Z,59.29
2018-03-20T12:40:25.906Z,59.38
2018-03-20T12:42:53.145Z,60.07
2018-03-20T12:45:20.472Z,59.53
2018-03-20T12:47:47.520Z,60.76
2018-03-20T12:50:14.652Z,59.61
2018-03-20T12:52:41.729Z,60.78
2018-03-20T12:55:09.139Z,60.79
2018-03-20T12:57:36.490Z,60.82
2018-03-20T13:00:03.272Z,61.53
2018-03-20T13:02:30.202Z,62.63
2018-03-20T13:04:57.627Z,62.06
2018-03-20T13:07:24.782Z,61.18
2018-03-20T13:09:51.859Z,62.90
2018-03-20T13:12:19.081Z,61.60
2018-03-20T13:14:45.867Z,60.13
2018-03-20T13:17:13.249Z,60.07
2018-03-20T13:19:41.208Z,60.30
2018-03-20T13:22:12.047Z,60.15
2018-03-20T13:24:39.225Z,60.07
2018-03-20T13:27:06.472Z,59.69
2018-03-20T13:29:35.154Z,60.68
2018-03-20T13:32:02.670Z,60.40
2018-03-20T13:34:29.439Z,61.64
2018-03-20T13:36:56.445Z,62.39
2018-03-20T13:39:23.565Z,61.42
2018-03-20T13:41:50.178Z,62.08
2018-03-20T13:44:17.221Z,61.99
2018-03-20T13:46:44.224Z,62.21
2018-03-20T13:49:11.122Z,61.98
2018-03-20T13:51:38.021Z,63.25
2018-03-20T13:54:04.985Z,62.16
2018-03-20T13:56:31.886Z,61.89
2018-03-20T13:58:59.377Z,61.65
2018-03-20T14:01:26.086Z,61.43
2018-03-20T14:03:52.529Z,63.49
2018-03-20T14:06:19.603Z,62.17
2018-03-20T14:08:46.660Z,61.32
2018-03-20T14:11:14.042Z,61.85
2018-03-20T14:13:42.315Z,63.50
2018-03-20T14:16:16.118Z,62.84
2018-03-20T14:18:42.946Z,62.77
2018-03-20T14:21:10.280Z,62.44
2018-03-20T14:23:37.319Z,61.94
2018-03-20T14:26:04.065Z,62.14
2018-03-20T14:28:31.253Z,62.25
2018-03-20T14:30:58.044Z,61.48
2018-03-20T14:33:25.347Z,60.91
2018-03-20T14:35:52.898Z,62.52
2018-03-20T14:38:20.011Z,61.78
2018-03-20T14:40:47.331Z,61.94
2018-03-20T14:43:13.995Z,61.11
2018-03-20T14:45:40.712Z,60.97
2018-03-20T14:48:07.850Z,62.61
2018-03-20T14:50:35.127Z,62.98
2018-03-20T14:53:01.738Z,63.44
2018-03-20T14:55:28.671Z,63.31
2018-03-20T14:57:56.520Z,63.24
2018-03-20T15:00:23.177Z,64.39
2018-03-20T15:02:50.146Z,64.17
2018-03-20T15:05:17.013Z,64.41
2018-03-20T15:07:43.805Z,63.44
2018-03-20T15:10:10.562Z,63.40
2018-03-20T15:12:37.253Z,63.58
2018-03-20T15:15:04.303Z,62.83
2018-03-20T15:17:31.451Z,63.26
2018-03-20T15:19:58.618Z,63.32
2018-03-20T15:22:25.667Z,63.45
2018-03-20T15:24:53.116Z,63.27
2018-03-20T15:27:19.920Z,63.75
2018-03-20T15:29:46.511Z,63.94
2018-03-20T15:32:13.298Z,64.58
2018-03-20T15:34:41.337Z,64.67
2018-03-20T15:37:08.305Z,64.83
2018-03-20T15:39:35.342Z,64.50
2018-03-20T15:42:02.450Z,65.15
2018-03-20T15:44:29.438Z,65.09
2018-03-20T15:46:56.522Z,65.26
2018-03-20T15:49:24.073Z,65.41
2018-03-20T15:51:51.006Z,65.24
2018-03-20T15:54:17.832Z,65.08
2018-03-20T15:56:44.686Z,65.23
2018-03-20T15:59:11.436Z,65.49
2018-03-20T16:01:38.127Z,65.08
2018-03-20T16:04:05.825Z,64.71
2018-03-20T16:06:32.679Z,65.21
2018-03-20T16:08:59.948Z,65.11
2018-03-20T16:11:26.742Z,65.15
2018-03-20T16:13:54.142Z,65.16
2018-03-20T16:16:21.040Z,65.38
2018-03-20T16:18:47.738Z,66.22
2018-03-20T16:21:14.386Z,66.28
2018-03-20T16:23:40.988Z,66.43
2018-03-20T16:26:08.519Z,67.88
2018-03-20T16:28:35.143Z,67.30
2018-03-20T16:31:02.428Z,67.00
2018-03-20T16:33:28.828Z,67.75
2018-03-20T16:35:55.542Z,68.09
2018-03-20T16:38:22.434Z,67.39
2018-03-20T16:40:49.174Z,67.14
2018-03-20T16:43:16.143Z,66.88
2018-03-20T16:45:43.395Z,66.40
2018-03-20T16:48:10.092Z,67.69
2018-03-20T16:50:36.998Z,67.99
2018-03-20T16:53:03.703Z,68.78
2018-03-20T16:55:31.052Z,69.98
2018-03-20T16:57:58.004Z,69.14
2018-03-20T17:00:24.832Z,69.47
2018-03-20T17:02:51.899Z,69.69
2018-03-20T17:05:19.223Z,70.52
2018-03-20T17:07:46.563Z,70.61
2018-03-20T17:10:13.024Z,69.99
2018-03-20T17:12:40.110Z,69.51
2018-03-20T17:15:07.725Z,68.72
2018-03-20T17:17:35.396Z,67.54
2018-03-20T17:20:03.239Z,67.66
2018-03-20T17:22:30.409Z,67.66
2018-03-20T17:24:57.418Z,67.68
2018-03-20T17:27:24.326Z,67.16
2018-03-20T17:29:51.268Z,67.42
2018-03-20T17:32:18.150Z,67.62
2018-03-20T17:34:44.690Z,66.97
2018-03-20T17:37:11.460Z,66.57
2018-03-20T17:39:38.052Z,66.64
2018-03-20T17:42:05.738Z,67.08
2018-03-20T17:44:33.626Z,66.87
2018-03-20T17:47:00.328Z,68.81
2018-03-20T17:49:27.372Z,70.12
2018-03-20T17:51:54.252Z,70.25
2018-03-20T17:54:20.830Z,69.03
2018-03-20T17:56:48.375Z,67.83
2018-03-20T17:59:15.506Z,66.69
2018-03-20T18:01:42.443Z,66.31
2018-03-20T18:04:09.630Z,66.13
2018-03-20T18:06:36.214Z,68.29
2018-03-20T18:09:04.817Z,68.72
2018-03-20T18:11:31.780Z,69.05
2018-03-20T18:13:58.426Z,69.50
2018-03-20T18:16:25.528Z,69.21
2018-03-20T18:18:52.585Z,68.93
2018-03-20T18:21:20.643Z,68.84
2018-03-20T18:23:48.927Z,69.33
2018-03-20T18:26:17.907Z,69.37
2018-03-20T18:28:44.379Z,70.38
2018-03-20T18:31:11.079Z,70.13
2018-03-20T18:33:37.948Z,70.00
2018-03-20T18:36:05.872Z,69.98
2018-03-20T18:38:32.869Z,70.65
2018-03-20T18:41:00.690Z,70.52
2018-03-20T18:43:27.270Z,69.76
2018-03-20T18:45:54.120Z,70.29
2018-03-20T18:48:20.638Z,70.11
2018-03-20T18:50:48.164Z,70.29
2018-03-20T18:53:15.448Z,70.03
2018-03-20T18:55:43.656Z,70.88
2018-03-20T18:58:10.372Z,70.62
2018-03-20T19:00:37.006Z,70.69
2018-03-20T19:03:03.996Z,70.64
2018-03-20T19:05:30.778Z,70.45
2018-03-20T19:07:57.957Z,69.49
2018-03-20T19:10:25.298Z,69.28
2018-03-20T19:12:52.194Z,70.34
2018-03-20T19:15:19.086Z,69.96
2018-03-20T19:17:45.617Z,70.01
2018-03-20T19:20:12.303Z,70.28
2018-03-20T19:22:39.664Z,69.88
2018-03-20T19:25:06.445Z,69.98
2018-03-20T19:27:34.865Z,69.74
2018-03-20T19:30:01.704Z,70.95
2018-03-20T19:32:28.754Z,71.49
2018-03-20T19:34:56.041Z,70.88
2018-03-20T19:37:23.108Z,70.04
2018-03-20T19:39:50.110Z,70.34
2018-03-20T19:42:16.924Z,70.30
2018-03-20T19:44:43.511Z,68.39
2018-03-20T19:47:11.019Z,68.32
2018-03-20T19:49:37.754Z,71.00
2018-03-20T19:52:04.643Z,72.22
2018-03-20T19:54:31.940Z,71.05
2018-03-20T19:56:58.784Z,70.86
2018-03-20T19:59:25.614Z,70.49
2018-03-20T20:01:52.511Z,70.75
2018-03-20T20:04:19.284Z,70.92
2018-03-20T20:06:46.430Z,70.45
2018-03-20T20:09:13.256Z,70.09
2018-03-20T20:11:40.146Z,70.74
2018-03-20T20:14:07.367Z,70.98
2018-03-20T20:16:34.411Z,70.70
2018-03-20T20:19:02.386Z,70.49
2018-03-20T20:21:29.570Z,70.62
2018-03-20T20:23:56.733Z,70.59
2018-03-20T20:26:23.615Z,70.40
2018-03-20T20:28:50.871Z,70.60
2018-03-20T20:31:17.775Z,70.61
2018-03-20T20:33:45.342Z,70.53
2018-03-20T20:36:11.977Z,70.83
2018-03-20T20:38:38.887Z,70.94
2018-03-20T20:41:06.011Z,70.94
2018-03-20T20:43:32.910Z,71.32
2018-03-20T20:45:59.956Z,72.08
2018-03-20T20:48:26.914Z,71.12
2018-03-20T20:50:53.727Z,72.26
2018-03-20T20:53:20.602Z,71.48
2018-03-20T20:55:47.298Z,70.92
2018-03-20T20:58:14.197Z,70.50
2018-03-20T21:03:14.343Z,70.79
2018-03-20T21:05:41.246Z,70.70
2018-03-20T21:08:08.322Z,70.42
2018-03-20T21:10:35.128Z,70.29
2018-03-20T21:13:02.014Z,70.26
2018-03-20T21:15:28.741Z,70.48
2018-03-20T21:17:55.530Z,70.26
2018-03-20T21:20:22.270Z,69.83
2018-03-20T21:22:49.078Z,69.86
2018-03-20T21:25:16.189Z,70.14
2018-03-20T21:27:43.314Z,70.28
2018-03-20T21:30:10.196Z,70.22
2018-03-20T21:32:37.304Z,70.11
2018-03-20T21:35:04.307Z,69.81
2018-03-20T21:37:31.522Z,69.90
2018-03-20T21:39:58.603Z,69.84
2018-03-20T21:42:25.591Z,69.88
2018-03-20T21:44:52.255Z,69.61
2018-03-20T21:47:19.248Z,69.72
2018-03-20T21:49:46.237Z,69.72
2018-03-20T21:52:12.961Z,69.56
2018-03-20T21:54:39.954Z,69.91
2018-03-20T21:57:07.041Z,70.00
2018-03-20T21:59:33.705Z,70.18
2018-03-20T22:02:00.422Z,69.88
2018-03-20T22:04:27.155Z,69.52
2018-03-20T22:06:55.119Z,72.13
2018-03-20T22:09:21.723Z,70.90
2018-03-20T22:11:48.437Z,70.90
2018-03-20T22:14:15.103Z,70.14
2018-03-20T22:16:42.126Z,69.72
2018-03-20T22:19:08.886Z,69.68
2018-03-20T22:21:36.190Z,73.85
2018-03-20T22:24:02.813Z,73.68
2018-03-20T22:26:29.535Z,71.89
2018-03-20T22:28:56.237Z,71.21
2018-03-20T22:31:23.429Z,70.83
2018-03-20T22:33:50.337Z,70.23
2018-03-20T22:36:17.514Z,69.53
2018-03-20T22:38:44.537Z,69.70
2018-03-20T22:41:11.448Z,69.23
2018-03-20T22:43:38.140Z,70.48
2018-03-20T22:46:05.263Z,70.84
2018-03-20T22:48:32.290Z,70.04
2018-03-20T22:50:58.994Z,71.10
2018-03-20T22:53:25.686Z,71.05
2018-03-20T22:55:53.303Z,71.10
2018-03-20T22:58:20.010Z,71.87
2018-03-20T23:00:46.941Z,71.07
2018-03-20T23:03:13.569Z,70.18
2018-03-20T23:05:40.021Z,70.05
2018-03-20T23:08:07.536Z,70.31
2018-03-20T23:10:34.328Z,70.35
2018-03-20T23:13:01.141Z,70.74
2018-03-20T23:15:27.859Z,70.91
2018-03-20T23:17:54.679Z,70.36
2018-03-20T23:20:21.028Z,69.94
2018-03-20T23:22:47.819Z,71.76
2018-03-20T23:25:15.002Z,70.41
2018-03-20T23:27:42.150Z,69.60
2018-03-20T23:30:08.935Z,69.34
2018-03-20T23:32:35.534Z,68.25
2018-03-20T23:35:02.445Z,68.05
2018-03-20T23:37:29.127Z,68.57
2018-03-20T23:39:55.793Z,68.45
2018-03-20T23:42:22.423Z,68.77
2018-03-20T23:44:49.158Z,68.77
2018-03-20T23:47:17.491Z,68.80
2018-03-20T23:49:44.062Z,68.77
2018-03-20T23:52:10.674Z,68.25
2018-03-20T23:54:37.656Z,68.35
2018-03-20T23:57:04.949Z,68.20
2018-03-20T23:59:31.764Z,67.18
